createdAt,value
2023-05-14T00:02:12.747Z,8.13
2023-05-14T00:05:15.360Z,8.85
2023-05-14T00:08:17.281Z,9.13
2023-05-14T00:11:19.736Z,8.55
2023-05-14T00:14:21.927Z,9.10
2023-05-14T00:17:24.186Z,9.70
2023-05-14T00:20:26.159Z,8.10
2023-05-14T00:23:28.475Z,8.82
2023-05-14T00:26:30.406Z,8.23
2023-05-14T00:29:32.655Z,9.50
2023-05-14T00:32:34.876Z,9.52
2023-05-14T00:35:37.197Z,8.50
2023-05-14T00:38:39.079Z,7.90
2023-05-14T00:41:43.579Z,7.80
2023-05-14T00:44:45.763Z,8.88
2023-05-14T00:47:49.116Z,8.45
2023-05-14T00:50:51.818Z,9.02
2023-05-14T00:53:54.828Z,9.18
2023-05-14T00:56:57.771Z,8.88
2023-05-14T01:00:00.057Z,9.00
2023-05-14T01:03:03.510Z,9.38
2023-05-14T01:06:12.096Z,7.85
2023-05-14T01:09:59.756Z,8.60
2023-05-14T01:13:15.278Z,9.80
2023-05-14T01:16:20.059Z,8.82
2023-05-14T01:19:43.916Z,8.95
2023-05-14T01:22:47.036Z,9.18
2023-05-14T01:25:49.476Z,9.25
2023-05-14T01:28:53.301Z,8.00
2023-05-14T01:31:58.133Z,9.25
2023-05-14T01:35:01.794Z,8.70
2023-05-14T01:38:09.391Z,8.63
2023-05-14T01:41:12.787Z,9.25
2023-05-14T01:44:15.043Z,9.10
2023-05-14T01:47:16.948Z,9.25
2023-05-14T01:50:19.980Z,9.68
2023-05-14T01:53:21.899Z,10.85
2023-05-14T01:56:25.897Z,10.70
2023-05-14T01:59:29.925Z,10.43
2023-05-14T02:02:32.190Z,10.95
2023-05-14T02:05:34.529Z,9.45
2023-05-14T02:08:36.784Z,9.50
2023-05-14T02:11:38.757Z,9.40
2023-05-14T02:14:41.054Z,9.10
2023-05-14T02:17:43.046Z,9.60
2023-05-14T02:20:46.805Z,9.65
2023-05-14T02:23:49.662Z,9.45
2023-05-14T02:26:52.113Z,9.65
2023-05-14T02:29:54.201Z,10.55
2023-05-14T02:32:56.595Z,9.27
2023-05-14T02:35:58.992Z,9.05
2023-05-14T02:39:01.328Z,9.73
2023-05-14T02:42:03.601Z,9.05
2023-05-14T02:45:06.631Z,9.25
2023-05-14T02:48:08.744Z,9.40
2023-05-14T02:51:11.243Z,10.32
2023-05-14T02:54:13.235Z,11.13
2023-05-14T02:57:15.720Z,10.90
2023-05-14T03:00:18.130Z,11.25
2023-05-14T03:03:21.121Z,10.88
2023-05-14T03:06:23.539Z,11.02
2023-05-14T03:09:25.804Z,10.10
2023-05-14T03:12:27.948Z,9.85
2023-05-14T03:19:20.815Z,10.82
2023-05-14T03:22:22.997Z,11.43
2023-05-14T03:25:26.964Z,13.38
2023-05-14T03:28:29.524Z,12.73
2023-05-14T03:31:32.618Z,11.93
2023-05-14T03:34:35.941Z,13.60
2023-05-14T03:37:38.600Z,13.15
2023-05-14T03:40:41.095Z,13.90
2023-05-14T03:43:43.964Z,13.80
2023-05-14T03:46:47.062Z,13.95
2023-05-14T03:49:49.961Z,13.43
2023-05-14T03:52:52.920Z,12.90
2023-05-14T03:55:55.835Z,13.38
2023-05-14T03:58:58.768Z,12.13
2023-05-14T04:02:01.366Z,11.13
2023-05-14T04:05:04.678Z,8.75
2023-05-14T04:08:07.522Z,11.23
2023-05-14T04:11:09.740Z,7.88
2023-05-14T04:14:12.846Z,8.18
2023-05-14T04:17:17.378Z,7.25
2023-05-14T04:20:19.901Z,5.50
2023-05-14T04:23:22.679Z,9.98
2023-05-14T04:26:25.438Z,10.00
2023-05-14T04:29:28.072Z,9.60
2023-05-14T04:32:32.127Z,11.07
2023-05-14T04:35:35.292Z,11.40
2023-05-14T04:38:38.049Z,11.52
2023-05-14T04:41:40.198Z,13.32
2023-05-14T04:44:42.747Z,14.40
2023-05-14T04:47:45.738Z,14.88
2023-05-14T04:50:48.329Z,16.60
2023-05-14T04:53:50.824Z,15.82
2023-05-14T04:56:56.605Z,14.95
2023-05-14T04:59:59.166Z,16.85
2023-05-14T05:03:01.895Z,16.15
2023-05-14T05:06:04.291Z,16.33
2023-05-14T05:09:10.108Z,16.45
2023-05-14T05:12:12.389Z,16.63
2023-05-14T05:15:15.715Z,17.73
2023-05-14T05:18:18.044Z,16.00
2023-05-14T05:21:20.753Z,16.45
2023-05-14T05:24:22.998Z,15.27
2023-05-14T05:27:26.743Z,16.75
2023-05-14T05:30:29.151Z,16.27
2023-05-14T05:33:32.133Z,17.30
2023-05-14T05:36:34.869Z,16.70
2023-05-14T05:39:37.343Z,15.10
2023-05-14T05:42:39.784Z,15.25
2023-05-14T05:45:43.292Z,14.93
2023-05-14T05:48:45.464Z,14.48
2023-05-14T05:51:47.964Z,13.77
2023-05-14T05:54:50.684Z,12.93
2023-05-14T05:57:53.314Z,12.70
2023-05-14T06:00:58.075Z,12.93
2023-05-14T06:04:26.413Z,12.35
2023-05-14T06:07:28.861Z,11.68
2023-05-14T06:10:35.638Z,11.65
2023-05-14T06:13:38.030Z,11.80
2023-05-14T06:16:40.955Z,11.43
2023-05-14T06:19:43.532Z,10.13
2023-05-14T06:22:46.458Z,11.93
2023-05-14T06:25:50.955Z,11.68
2023-05-14T06:28:54.185Z,11.52
2023-05-14T06:32:03.983Z,11.70
2023-05-14T06:38:26.065Z,10.32
2023-05-14T06:41:31.957Z,10.18
2023-05-14T06:44:34.509Z,10.52
2023-05-14T06:47:37.619Z,10.25
2023-05-14T06:50:40.643Z,9.35
2023-05-14T06:53:43.509Z,9.45
2023-05-14T06:56:46.248Z,9.50
2023-05-14T06:59:49.554Z,10.52
2023-05-14T07:02:52.751Z,10.10
2023-05-14T07:05:56.090Z,10.48
2023-05-14T07:08:58.455Z,9.32
2023-05-14T07:12:01.325Z,10.10
2023-05-14T07:15:03.708Z,9.85
2023-05-14T07:18:06.391Z,10.18
2023-05-14T07:21:09.754Z,10.32
2023-05-14T07:24:13.056Z,9.63
2023-05-14T07:27:17.314Z,10.88
2023-05-14T07:30:21.165Z,11.23
2023-05-14T07:33:24.877Z,10.23
2023-05-14T07:36:28.555Z,10.10
2023-05-14T07:39:31.159Z,9.10
2023-05-14T07:42:36.942Z,9.18
2023-05-14T07:45:40.222Z,8.80
2023-05-14T07:48:42.900Z,8.85
2023-05-14T07:51:45.222Z,8.65
2023-05-14T07:54:49.407Z,8.20
2023-05-14T07:57:53.362Z,9.10
2023-05-14T08:00:57.295Z,8.63
2023-05-14T08:03:59.732Z,8.00
2023-05-14T08:07:02.312Z,7.05
2023-05-14T08:10:10.504Z,10.38
2023-05-14T08:13:13.838Z,9.10
2023-05-14T08:16:16.420Z,7.70
2023-05-14T08:19:20.584Z,8.82
2023-05-14T08:22:23.418Z,7.43
2023-05-14T08:25:25.849Z,8.02
2023-05-14T08:28:54.257Z,7.97
2023-05-14T08:32:05.806Z,7.78
2023-05-14T08:35:14.648Z,7.65
2023-05-14T08:38:17.632Z,8.50
2023-05-14T08:41:20.105Z,8.57
2023-05-14T08:44:40.243Z,8.38
2023-05-14T08:47:44.359Z,8.32
2023-05-14T08:50:48.633Z,9.05
2023-05-14T08:53:51.874Z,8.15
2023-05-14T09:00:12.771Z,7.28
2023-05-14T09:03:16.533Z,6.82
2023-05-14T09:06:19.534Z,6.90
2023-05-14T09:09:24.690Z,6.57
2023-05-14T09:15:31.228Z,6.32
2023-05-14T09:18:36.042Z,6.30
2023-05-14T09:21:42.143Z,5.32
2023-05-14T09:24:45.327Z,6.10
2023-05-14T09:27:51.459Z,5.83
2023-05-14T09:30:55.694Z,5.00
2023-05-14T09:33:59.625Z,4.60
2023-05-14T09:37:04.027Z,5.18
2023-05-14T09:40:09.456Z,5.43
2023-05-14T09:43:14.405Z,5.22
2023-05-14T09:46:18.321Z,5.38
2023-05-14T09:49:23.016Z,4.72
2023-05-14T09:55:29.288Z,4.25
2023-05-14T09:58:32.093Z,4.93
2023-05-14T10:01:36.924Z,4.47
2023-05-14T10:04:40.485Z,5.00
2023-05-14T10:07:50.821Z,6.32
2023-05-14T10:10:59.765Z,4.75
2023-05-14T10:14:06.698Z,5.55
2023-05-14T10:17:18.701Z,3.53
2023-05-14T10:20:23.107Z,4.35
2023-05-14T10:23:27.940Z,4.32
2023-05-14T10:26:32.473Z,4.00
2023-05-14T10:29:37.961Z,5.63
2023-05-14T10:36:00.568Z,4.03
2023-05-14T10:39:06.344Z,3.78
2023-05-14T10:42:14.622Z,3.85
2023-05-14T10:45:17.172Z,3.08
2023-05-14T10:48:20.839Z,4.07
2023-05-14T10:51:24.136Z,4.10
2023-05-14T10:54:29.450Z,4.10
2023-05-14T10:57:32.864Z,4.72
2023-05-14T11:00:36.389Z,4.35
2023-05-14T11:03:43.054Z,3.92
2023-05-14T11:06:48.085Z,3.92
2023-05-14T11:12:54.071Z,4.05
2023-05-14T11:15:57.142Z,4.38
2023-05-14T11:19:06.678Z,4.90
2023-05-14T11:22:09.195Z,4.47
2023-05-14T11:25:15.213Z,4.18
2023-05-14T11:28:21.558Z,3.78
2023-05-14T11:31:25.981Z,4.55
2023-05-14T11:34:29.222Z,4.45
2023-05-14T11:37:32.244Z,4.10
2023-05-14T11:40:35.952Z,5.17
2023-05-14T11:43:39.316Z,3.40
2023-05-14T11:46:42.355Z,4.47
2023-05-14T11:49:46.969Z,4.00
2023-05-14T11:52:51.003Z,3.58
2023-05-14T11:55:54.816Z,4.18
2023-05-14T11:59:00.120Z,3.08
2023-05-14T12:02:05.710Z,3.88
2023-05-14T12:05:09.380Z,3.03
2023-05-14T12:08:28.180Z,3.30
2023-05-14T12:11:35.460Z,3.55
2023-05-14T12:14:45.766Z,2.78
2023-05-14T12:18:25.040Z,3.47
2023-05-14T12:22:00.805Z,3.85
2023-05-14T12:25:20.505Z,3.95
2023-05-14T12:28:36.054Z,3.92
2023-05-14T12:31:47.857Z,3.80
2023-05-14T12:35:02.612Z,3.15
2023-05-14T12:38:34.603Z,3.25
2023-05-14T12:41:37.346Z,4.60
2023-05-14T12:44:42.755Z,3.53
2023-05-14T12:47:46.525Z,4.55
2023-05-14T12:50:49.407Z,3.72
2023-05-14T12:53:54.664Z,3.28
2023-05-14T12:56:58.639Z,3.65
2023-05-14T13:00:13.725Z,2.38
2023-05-14T13:03:37.195Z,3.45
2023-05-14T13:06:47.892Z,3.35
2023-05-14T13:09:50.484Z,3.65
2023-05-14T13:12:53.703Z,3.88
2023-05-14T13:16:00.398Z,3.30
2023-05-14T13:19:04.057Z,3.60
2023-05-14T13:22:10.688Z,3.35
2023-05-14T13:25:15.885Z,3.70
2023-05-14T13:28:18.712Z,3.95
2023-05-14T13:31:21.918Z,3.90
2023-05-14T13:34:24.381Z,4.38
2023-05-14T13:37:29.255Z,4.20
2023-05-14T13:40:33.688Z,4.65
2023-05-14T13:46:42.566Z,4.45
2023-05-14T13:49:51.955Z,4.70
2023-05-14T13:53:03.483Z,4.45
2023-05-14T13:56:09.160Z,3.88
2023-05-14T13:59:17.332Z,4.88
2023-05-14T14:02:35.159Z,4.47
2023-05-14T14:05:37.905Z,4.90
2023-05-14T14:08:49.328Z,4.20
2023-05-14T14:11:52.149Z,4.43
2023-05-14T14:14:57.317Z,4.00
2023-05-14T14:17:59.767Z,5.35
2023-05-14T14:21:08.353Z,3.70
2023-05-14T14:24:35.142Z,3.40
2023-05-14T14:27:41.076Z,3.60
2023-05-14T14:31:38.315Z,3.45
2023-05-14T14:35:18.500Z,3.00
2023-05-14T14:38:22.220Z,3.70
2023-05-14T14:41:34.332Z,3.65
2023-05-14T14:44:38.894Z,4.68
2023-05-14T14:47:50.439Z,4.57
2023-05-14T14:50:54.572Z,4.35
2023-05-14T14:53:57.169Z,4.93
2023-05-14T14:57:00.434Z,5.03
2023-05-14T15:00:04.308Z,5.10
2023-05-14T15:03:11.872Z,4.68
2023-05-14T15:06:15.051Z,5.03
2023-05-14T15:09:18.004Z,5.00
2023-05-14T15:12:21.026Z,4.90
2023-05-14T15:15:25.441Z,4.40
2023-05-14T15:18:28.000Z,5.70
2023-05-14T15:21:34.194Z,5.20
2023-05-14T15:24:36.291Z,5.88
2023-05-14T15:27:38.962Z,5.82
2023-05-14T15:30:41.590Z,6.55
2023-05-14T15:33:45.684Z,7.10
2023-05-14T15:36:48.798Z,6.40
2023-05-14T15:39:51.454Z,6.95
2023-05-14T15:42:58.386Z,6.93
2023-05-14T15:46:01.650Z,6.95
2023-05-14T15:49:06.539Z,7.38
2023-05-14T15:52:19.369Z,7.95
2023-05-14T15:55:27.502Z,7.28
2023-05-14T15:58:31.469Z,7.45
2023-05-14T16:01:34.195Z,8.07
2023-05-14T16:04:38.969Z,7.47
2023-05-14T16:07:43.234Z,7.85
2023-05-14T16:10:47.286Z,8.63
2023-05-14T16:13:59.839Z,8.40
2023-05-14T16:17:18.542Z,8.80
2023-05-14T16:20:21.196Z,8.77
2023-05-14T16:23:50.866Z,9.50
2023-05-14T16:27:22.197Z,9.02
2023-05-14T16:31:04.072Z,9.05
2023-05-14T16:34:21.289Z,9.32
2023-05-14T16:37:24.937Z,8.13
2023-05-14T16:40:29.697Z,8.10
2023-05-14T16:45:41.381Z,8.32
2023-05-14T16:48:15.870Z,8.50
2023-05-14T16:51:51.675Z,8.52
2023-05-14T16:54:57.256Z,8.35
2023-05-14T16:58:00.730Z,7.97
2023-05-14T17:01:03.986Z,7.97
2023-05-14T17:04:06.695Z,6.40
2023-05-14T17:07:10.726Z,7.38
2023-05-14T17:10:14.162Z,7.60
2023-05-14T17:13:16.910Z,7.10
2023-05-14T17:16:39.149Z,6.80
2023-05-14T17:19:41.414Z,6.85
2023-05-14T17:22:47.031Z,6.38
2023-05-14T17:25:49.856Z,6.57
2023-05-14T17:28:53.460Z,6.82
2023-05-14T17:31:56.163Z,6.43
2023-05-14T17:34:58.802Z,6.60
2023-05-14T17:38:14.566Z,6.38
2023-05-14T17:41:51.261Z,6.60
2023-05-14T17:45:16.964Z,6.57
2023-05-14T17:48:34.230Z,7.22
2023-05-14T17:51:37.090Z,6.70
2023-05-14T17:54:53.958Z,6.05
2023-05-14T17:57:58.811Z,6.97
2023-05-14T18:01:02.130Z,7.22
2023-05-14T18:04:05.847Z,5.65
2023-05-14T18:07:21.824Z,6.13
2023-05-14T18:10:30.176Z,6.43
2023-05-14T18:13:33.490Z,6.60
2023-05-14T18:16:43.080Z,5.53
2023-05-14T18:19:45.585Z,6.10
2023-05-14T18:22:48.319Z,5.07
2023-05-14T18:25:51.987Z,5.43
2023-05-14T18:28:58.359Z,5.25
2023-05-14T18:32:00.943Z,4.72
2023-05-14T18:38:23.801Z,4.93
2023-05-14T18:41:29.018Z,5.00
2023-05-14T18:44:34.978Z,5.40
2023-05-14T18:50:52.386Z,5.05
2023-05-14T18:57:12.516Z,5.75
2023-05-14T19:00:16.455Z,5.72
2023-05-14T19:03:20.889Z,5.82
2023-05-14T19:06:24.129Z,6.15
2023-05-14T19:09:26.918Z,6.43
2023-05-14T19:12:31.723Z,6.05
2023-05-14T19:15:35.722Z,6.95
2023-05-14T19:18:39.335Z,7.30
2023-05-14T19:21:41.877Z,8.07
2023-05-14T19:24:46.215Z,7.65
2023-05-14T19:27:51.281Z,6.80
2023-05-14T19:30:54.562Z,7.28
2023-05-14T19:33:56.845Z,6.15
2023-05-14T19:36:59.712Z,6.75
2023-05-14T19:40:02.569Z,6.28
2023-05-14T19:43:05.440Z,6.97
2023-05-14T19:46:08.782Z,6.00
2023-05-14T19:49:12.262Z,6.75
2023-05-14T19:52:15.477Z,6.93
2023-05-14T19:55:18.477Z,7.60
2023-05-14T19:58:22.640Z,7.57
2023-05-14T20:01:27.006Z,7.85
2023-05-14T20:04:30.575Z,5.70
2023-05-14T20:07:39.617Z,6.43
2023-05-14T20:10:43.269Z,7.05
2023-05-14T20:13:49.469Z,7.30
2023-05-14T20:19:55.619Z,8.00
2023-05-14T20:22:58.076Z,9.43
2023-05-14T20:26:04.690Z,9.00
2023-05-14T20:29:11.600Z,10.65
2023-05-14T20:32:15.906Z,11.82
2023-05-14T20:35:19.127Z,11.10
2023-05-14T20:38:22.351Z,11.77
2023-05-14T20:41:24.565Z,12.25
2023-05-14T20:44:27.377Z,11.55
2023-05-14T20:47:33.446Z,11.68
2023-05-14T20:50:36.719Z,12.40
2023-05-14T20:53:39.302Z,7.97
2023-05-14T20:56:43.043Z,4.90
2023-05-14T20:59:49.147Z,3.38
2023-05-14T21:02:52.694Z,2.80
2023-05-14T21:05:57.007Z,8.77
2023-05-14T21:08:59.750Z,9.93
2023-05-14T21:12:06.498Z,10.18
2023-05-14T21:15:10.332Z,5.30
2023-05-14T21:18:13.886Z,3.80
2023-05-14T21:21:16.543Z,8.63
2023-05-14T21:24:19.598Z,10.18
2023-05-14T21:27:23.518Z,10.70
2023-05-14T21:30:25.678Z,9.50
2023-05-14T21:33:28.603Z,11.57
2023-05-14T21:36:31.515Z,14.00
2023-05-14T21:39:34.550Z,15.25
2023-05-14T21:42:38.530Z,15.50
2023-05-14T21:45:43.410Z,14.30
2023-05-14T21:48:48.700Z,12.35
2023-05-14T21:51:55.272Z,6.03
2023-05-14T21:54:57.465Z,3.70
2023-05-14T21:58:01.016Z,3.10
2023-05-14T22:01:03.782Z,2.13
2023-05-14T22:04:06.849Z,8.65
2023-05-14T22:07:08.988Z,9.52
2023-05-14T22:10:17.332Z,10.15
2023-05-14T22:13:23.807Z,7.65
2023-05-14T22:16:27.885Z,3.42
2023-05-14T22:19:30.282Z,2.70
2023-05-14T22:22:53.545Z,2.22
2023-05-14T22:25:56.390Z,9.05
2023-05-14T22:29:00.482Z,9.05
2023-05-14T22:32:04.535Z,11.33
2023-05-14T22:35:07.449Z,12.40
2023-05-14T22:38:09.746Z,13.07
2023-05-14T22:41:12.935Z,13.50
2023-05-14T22:44:15.118Z,14.98
2023-05-14T22:47:18.693Z,14.55
2023-05-14T22:50:22.103Z,15.95
2023-05-14T22:53:26.132Z,16.05
2023-05-14T22:56:28.748Z,15.82
2023-05-14T22:59:31.582Z,16.65
2023-05-14T23:02:33.725Z,18.23
2023-05-14T23:05:36.983Z,16.15
2023-05-14T23:08:39.278Z,15.18
2023-05-14T23:11:41.959Z,13.65
2023-05-14T23:14:44.330Z,12.27
2023-05-14T23:17:47.367Z,12.05
2023-05-14T23:20:50.467Z,15.93
2023-05-14T23:23:53.016Z,13.45
2023-05-14T23:26:55.901Z,14.88
2023-05-14T23:29:59.115Z,14.13
2023-05-14T23:33:01.421Z,13.25
2023-05-14T23:36:04.055Z,13.80
2023-05-14T23:39:06.582Z,4.88
2023-05-14T23:42:10.071Z,11.13
2023-05-14T23:45:13.684Z,12.05
2023-05-14T23:48:16.238Z,13.57
2023-05-14T23:51:18.966Z,13.63
2023-05-14T23:54:21.798Z,11.77
2023-05-14T23:57:24.088Z,12.63
